sensor_id;sensor_type;location;lat;lon;timestamp;temperature;humidity
6518;DHT22;3292;48.944;9.240;2023-06-22T00:02:17;21.20;99.90
6518;DHT22;3292;48.944;9.240;2023-06-22T00:04:44;21.10;99.90
6518;DHT22;3292;48.944;9.240;2023-06-22T00:07:11;21.10;99.90
6518;DHT22;3292;48.944;9.240;2023-06-22T00:09:37;21.10;99.90
6518;DHT22;3292;48.944;9.240;2023-06-22T00:12:05;21.00;99.90
6518;DHT22;3292;48.944;9.240;2023-06-22T00:14:33;20.90;99.90
6518;DHT22;3292;48.944;9.240;2023-06-22T00:17:00;20.90;99.90
6518;DHT22;3292;48.944;9.240;2023-06-22T00:19:27;20.90;99.90
6518;DHT22;3292;48.944;9.240;2023-06-22T00:21:54;20.90;99.90
6518;DHT22;3292;48.944;9.240;2023-06-22T00:24:20;20.90;99.90
6518;DHT22;3292;48.944;9.240;2023-06-22T00:26:47;20.80;99.90
6518;DHT22;3292;48.944;9.240;2023-06-22T00:29:15;20.90;99.90
6518;DHT22;3292;48.944;9.240;2023-06-22T00:31:43;20.80;99.90
6518;DHT22;3292;48.944;9.240;2023-06-22T00:34:10;20.70;99.90
6518;DHT22;3292;48.944;9.240;2023-06-22T00:36:37;20.70;99.90
6518;DHT22;3292;48.944;9.240;2023-06-22T00:39:06;20.70;99.90
6518;DHT22;3292;48.944;9.240;2023-06-22T00:41:33;20.70;99.90
6518;DHT22;3292;48.944;9.240;2023-06-22T00:44:00;20.70;99.90
6518;DHT22;3292;48.944;9.240;2023-06-22T00:46:26;20.70;99.90
6518;DHT22;3292;48.944;9.240;2023-06-22T00:48:55;20.60;99.90
6518;DHT22;3292;48.944;9.240;2023-06-22T00:51:22;20.60;99.90
6518;DHT22;3292;48.944;9.240;2023-06-22T00:53:50;20.60;99.90
6518;DHT22;3292;48.944;9.240;2023-06-22T00:56:17;20.60;99.90
6518;DHT22;3292;48.944;9.240;2023-06-22T00:58:45;20.50;99.90
6518;DHT22;3292;48.944;9.240;2023-06-22T01:01:12;20.50;99.90
6518;DHT22;3292;48.944;9.240;2023-06-22T01:03:40;20.50;99.90
6518;DHT22;3292;48.944;9.240;2023-06-22T01:06:12;20.50;99.90
6518;DHT22;3292;48.944;9.240;2023-06-22T01:08:46;20.50;99.90
6518;DHT22;3292;48.944;9.240;2023-06-22T01:11:18;20.50;99.90
6518;DHT22;3292;48.944;9.240;2023-06-22T01:13:52;20.40;99.90
6518;DHT22;3292;48.944;9.240;2023-06-22T01:16:29;20.30;99.90
6518;DHT22;3292;48.944;9.240;2023-06-22T01:18:57;20.30;99.90
6518;DHT22;3292;48.944;9.240;2023-06-22T01:21:30;20.20;99.90
6518;DHT22;3292;48.944;9.240;2023-06-22T01:24:07;20.20;99.90
6518;DHT22;3292;48.944;9.240;2023-06-22T01:26:40;20.10;99.90
6518;DHT22;3292;48.944;9.240;2023-06-22T01:29:11;20.10;99.90
6518;DHT22;3292;48.944;9.240;2023-06-22T01:31:40;20.10;99.90
6518;DHT22;3292;48.944;9.240;2023-06-22T01:34:08;20.10;99.90
6518;DHT22;3292;48.944;9.240;2023-06-22T01:36:36;20.20;99.90
6518;DHT22;3292;48.944;9.240;2023-06-22T01:39:05;20.20;99.90
6518;DHT22;3292;48.944;9.240;2023-06-22T01:41:35;20.20;99.90
6518;DHT22;3292;48.944;9.240;2023-06-22T01:44:04;20.20;99.90
6518;DHT22;3292;48.944;9.240;2023-06-22T01:46:33;20.20;99.90
6518;DHT22;3292;48.944;9.240;2023-06-22T01:49:01;20.20;99.90
6518;DHT22;3292;48.944;9.240;2023-06-22T01:51:28;20.20;99.90
6518;DHT22;3292;48.944;9.240;2023-06-22T01:53:56;20.20;99.90
6518;DHT22;3292;48.944;9.240;2023-06-22T01:56:22;20.10;99.90
6518;DHT22;3292;48.944;9.240;2023-06-22T01:58:55;20.20;99.90
6518;DHT22;3292;48.944;9.240;2023-06-22T02:01:29;20.10;99.90
6518;DHT22;3292;48.944;9.240;2023-06-22T02:04:03;20.00;99.90
6518;DHT22;3292;48.944;9.240;2023-06-22T02:06:34;20.00;99.90
6518;DHT22;3292;48.944;9.240;2023-06-22T02:09:07;20.00;99.90
6518;DHT22;3292;48.944;9.240;2023-06-22T02:11:35;19.90;99.90
6518;DHT22;3292;48.944;9.240;2023-06-22T02:14:05;20.00;99.90
6518;DHT22;3292;48.944;9.240;2023-06-22T02:16:32;19.90;99.90
6518;DHT22;3292;48.944;9.240;2023-06-22T02:19:02;19.90;99.90
6518;DHT22;3292;48.944;9.240;2023-06-22T02:21:29;19.90;99.90
6518;DHT22;3292;48.944;9.240;2023-06-22T02:23:56;19.80;99.90
6518;DHT22;3292;48.944;9.240;2023-06-22T02:26:24;19.90;99.90
6518;DHT22;3292;48.944;9.240;2023-06-22T02:28:51;19.90;99.90
6518;DHT22;3292;48.944;9.240;2023-06-22T02:31:18;19.80;99.90
6518;DHT22;3292;48.944;9.240;2023-06-22T02:33:45;19.80;99.90
6518;DHT22;3292;48.944;9.240;2023-06-22T02:36:15;19.80;99.90
6518;DHT22;3292;48.944;9.240;2023-06-22T02:38:43;19.80;99.90
6518;DHT22;3292;48.944;9.240;2023-06-22T02:41:14;19.80;99.90
6518;DHT22;3292;48.944;9.240;2023-06-22T02:43:44;19.70;99.90
6518;DHT22;3292;48.944;9.240;2023-06-22T02:46:11;19.70;99.90
6518;DHT22;3292;48.944;9.240;2023-06-22T02:48:38;19.60;99.90
6518;DHT22;3292;48.944;9.240;2023-06-22T02:51:05;19.60;99.90
6518;DHT22;3292;48.944;9.240;2023-06-22T02:53:33;19.60;99.90
6518;DHT22;3292;48.944;9.240;2023-06-22T02:56:01;19.60;99.90
6518;DHT22;3292;48.944;9.240;2023-06-22T02:58:28;19.50;99.90
6518;DHT22;3292;48.944;9.240;2023-06-22T03:00:55;19.50;99.90
6518;DHT22;3292;48.944;9.240;2023-06-22T03:03:22;19.50;99.90
6518;DHT22;3292;48.944;9.240;2023-06-22T03:05:51;19.50;99.90
6518;DHT22;3292;48.944;9.240;2023-06-22T03:08:18;19.50;99.90
6518;DHT22;3292;48.944;9.240;2023-06-22T03:10:46;19.50;99.90
6518;DHT22;3292;48.944;9.240;2023-06-22T03:13:13;19.40;99.90
6518;DHT22;3292;48.944;9.240;2023-06-22T03:15:40;19.40;99.90
6518;DHT22;3292;48.944;9.240;2023-06-22T03:18:07;19.40;99.90
6518;DHT22;3292;48.944;9.240;2023-06-22T03:20:34;19.40;99.90
6518;DHT22;3292;48.944;9.240;2023-06-22T03:23:01;19.40;99.90
6518;DHT22;3292;48.944;9.240;2023-06-22T03:25:28;19.30;99.90
6518;DHT22;3292;48.944;9.240;2023-06-22T03:27:56;19.30;99.90
6518;DHT22;3292;48.944;9.240;2023-06-22T03:30:22;19.30;99.90
6518;DHT22;3292;48.944;9.240;2023-06-22T03:32:49;19.30;99.90
6518;DHT22;3292;48.944;9.240;2023-06-22T03:35:16;19.20;99.90
6518;DHT22;3292;48.944;9.240;2023-06-22T03:37:43;19.20;99.90
6518;DHT22;3292;48.944;9.240;2023-06-22T03:40:11;19.20;99.90
6518;DHT22;3292;48.944;9.240;2023-06-22T03:42:38;19.30;99.90
6518;DHT22;3292;48.944;9.240;2023-06-22T03:45:07;19.40;99.90
6518;DHT22;3292;48.944;9.240;2023-06-22T03:47:34;19.50;99.90
6518;DHT22;3292;48.944;9.240;2023-06-22T03:50:01;19.60;99.90
6518;DHT22;3292;48.944;9.240;2023-06-22T03:52:29;19.60;99.90
6518;DHT22;3292;48.944;9.240;2023-06-22T03:54:55;19.70;99.90
6518;DHT22;3292;48.944;9.240;2023-06-22T03:57:22;19.70;99.90
6518;DHT22;3292;48.944;9.240;2023-06-22T03:59:49;19.70;99.90
6518;DHT22;3292;48.944;9.240;2023-06-22T04:02:19;19.70;99.90
6518;DHT22;3292;48.944;9.240;2023-06-22T04:04:45;19.80;99.90
6518;DHT22;3292;48.944;9.240;2023-06-22T04:07:12;19.70;99.90
6518;DHT22;3292;48.944;9.240;2023-06-22T04:09:39;19.80;99.90
6518;DHT22;3292;48.944;9.240;2023-06-22T04:12:07;19.70;99.90
6518;DHT22;3292;48.944;9.240;2023-06-22T04:14:34;19.70;99.90
6518;DHT22;3292;48.944;9.240;2023-06-22T04:17:01;19.70;99.90
6518;DHT22;3292;48.944;9.240;2023-06-22T04:19:29;19.70;99.90
6518;DHT22;3292;48.944;9.240;2023-06-22T04:21:56;19.80;99.90
6518;DHT22;3292;48.944;9.240;2023-06-22T04:24:23;19.80;99.90
6518;DHT22;3292;48.944;9.240;2023-06-22T04:26:50;19.80;99.90
6518;DHT22;3292;48.944;9.240;2023-06-22T04:29:20;19.90;99.90
6518;DHT22;3292;48.944;9.240;2023-06-22T04:31:54;19.90;99.90
6518;DHT22;3292;48.944;9.240;2023-06-22T04:34:23;19.90;99.90
6518;DHT22;3292;48.944;9.240;2023-06-22T04:36:53;19.90;99.90
6518;DHT22;3292;48.944;9.240;2023-06-22T04:39:20;19.90;99.90
6518;DHT22;3292;48.944;9.240;2023-06-22T04:41:47;20.00;99.90
6518;DHT22;3292;48.944;9.240;2023-06-22T04:44:15;20.10;99.90
6518;DHT22;3292;48.944;9.240;2023-06-22T04:46:50;20.10;99.90
6518;DHT22;3292;48.944;9.240;2023-06-22T04:49:19;20.10;99.90
6518;DHT22;3292;48.944;9.240;2023-06-22T04:51:46;20.10;99.90
6518;DHT22;3292;48.944;9.240;2023-06-22T04:54:14;20.20;99.90
6518;DHT22;3292;48.944;9.240;2023-06-22T04:56:41;20.20;99.90
6518;DHT22;3292;48.944;9.240;2023-06-22T04:59:08;20.30;99.90
6518;DHT22;3292;48.944;9.240;2023-06-22T05:01:38;20.30;99.90
6518;DHT22;3292;48.944;9.240;2023-06-22T05:04:05;20.40;99.90
6518;DHT22;3292;48.944;9.240;2023-06-22T05:06:32;20.50;99.90
6518;DHT22;3292;48.944;9.240;2023-06-22T05:08:59;20.60;99.90
6518;DHT22;3292;48.944;9.240;2023-06-22T05:11:28;20.70;99.90
6518;DHT22;3292;48.944;9.240;2023-06-22T05:13:55;20.80;99.90
6518;DHT22;3292;48.944;9.240;2023-06-22T05:16:24;21.00;99.90
6518;DHT22;3292;48.944;9.240;2023-06-22T05:18:52;21.00;99.90
6518;DHT22;3292;48.944;9.240;2023-06-22T05:21:22;21.20;99.90
6518;DHT22;3292;48.944;9.240;2023-06-22T05:23:50;21.30;99.90
6518;DHT22;3292;48.944;9.240;2023-06-22T05:26:16;21.30;99.90
6518;DHT22;3292;48.944;9.240;2023-06-22T05:28:45;21.40;99.90
6518;DHT22;3292;48.944;9.240;2023-06-22T05:31:12;21.50;99.90
6518;DHT22;3292;48.944;9.240;2023-06-22T05:33:40;21.50;99.90
6518;DHT22;3292;48.944;9.240;2023-06-22T05:36:07;21.70;99.90
6518;DHT22;3292;48.944;9.240;2023-06-22T05:38:33;21.80;99.90
6518;DHT22;3292;48.944;9.240;2023-06-22T05:41:00;21.90;99.90
6518;DHT22;3292;48.944;9.240;2023-06-22T05:43:27;22.00;99.90
6518;DHT22;3292;48.944;9.240;2023-06-22T05:45:55;22.00;99.90
6518;DHT22;3292;48.944;9.240;2023-06-22T05:48:22;22.10;99.90
6518;DHT22;3292;48.944;9.240;2023-06-22T05:50:49;22.20;99.90
6518;DHT22;3292;48.944;9.240;2023-06-22T05:53:16;22.30;99.90
6518;DHT22;3292;48.944;9.240;2023-06-22T05:55:43;22.40;99.90
6518;DHT22;3292;48.944;9.240;2023-06-22T05:58:10;22.50;99.90
6518;DHT22;3292;48.944;9.240;2023-06-22T06:00:37;22.50;99.90
6518;DHT22;3292;48.944;9.240;2023-06-22T06:03:05;22.60;99.90
6518;DHT22;3292;48.944;9.240;2023-06-22T06:05:33;22.60;99.90
6518;DHT22;3292;48.944;9.240;2023-06-22T06:08:01;22.60;99.90
6518;DHT22;3292;48.944;9.240;2023-06-22T06:10:28;22.70;99.90
6518;DHT22;3292;48.944;9.240;2023-06-22T06:12:55;23.00;99.90
6518;DHT22;3292;48.944;9.240;2023-06-22T06:15:22;23.40;99.90
6518;DHT22;3292;48.944;9.240;2023-06-22T06:17:50;23.90;99.90
6518;DHT22;3292;48.944;9.240;2023-06-22T06:20:22;24.50;99.90
6518;DHT22;3292;48.944;9.240;2023-06-22T06:22:50;25.00;99.90
6518;DHT22;3292;48.944;9.240;2023-06-22T06:25:17;25.70;99.90
6518;DHT22;3292;48.944;9.240;2023-06-22T06:27:46;26.10;99.90
6518;DHT22;3292;48.944;9.240;2023-06-22T06:30:14;26.20;99.90
6518;DHT22;3292;48.944;9.240;2023-06-22T06:32:42;26.20;99.90
6518;DHT22;3292;48.944;9.240;2023-06-22T06:35:12;26.50;99.90
6518;DHT22;3292;48.944;9.240;2023-06-22T06:37:42;26.60;99.90
6518;DHT22;3292;48.944;9.240;2023-06-22T06:40:10;27.00;99.90
6518;DHT22;3292;48.944;9.240;2023-06-22T06:42:37;27.40;99.90
6518;DHT22;3292;48.944;9.240;2023-06-22T06:45:06;27.90;99.90
6518;DHT22;3292;48.944;9.240;2023-06-22T06:47:33;28.20;99.90
6518;DHT22;3292;48.944;9.240;2023-06-22T06:50:00;28.00;99.90
6518;DHT22;3292;48.944;9.240;2023-06-22T06:52:27;27.70;99.90
6518;DHT22;3292;48.944;9.240;2023-06-22T06:54:55;27.50;99.90
6518;DHT22;3292;48.944;9.240;2023-06-22T06:57:22;27.60;99.90
6518;DHT22;3292;48.944;9.240;2023-06-22T06:59:49;27.40;99.90
6518;DHT22;3292;48.944;9.240;2023-06-22T07:02:16;27.80;99.90
6518;DHT22;3292;48.944;9.240;2023-06-22T07:04:43;28.10;99.90
6518;DHT22;3292;48.944;9.240;2023-06-22T07:07:10;28.30;99.90
6518;DHT22;3292;48.944;9.240;2023-06-22T07:09:37;28.50;99.90
6518;DHT22;3292;48.944;9.240;2023-06-22T07:12:06;28.40;99.90
6518;DHT22;3292;48.944;9.240;2023-06-22T07:14:33;28.30;99.90
6518;DHT22;3292;48.944;9.240;2023-06-22T07:17:00;28.70;99.90
6518;DHT22;3292;48.944;9.240;2023-06-22T07:19:27;28.60;99.90
6518;DHT22;3292;48.944;9.240;2023-06-22T07:21:54;28.50;99.90
6518;DHT22;3292;48.944;9.240;2023-06-22T07:24:21;28.40;99.90
6518;DHT22;3292;48.944;9.240;2023-06-22T07:26:49;28.30;99.90
6518;DHT22;3292;48.944;9.240;2023-06-22T07:29:18;28.60;99.90
6518;DHT22;3292;48.944;9.240;2023-06-22T07:31:46;28.80;99.90
6518;DHT22;3292;48.944;9.240;2023-06-22T07:34:15;29.20;99.90
6518;DHT22;3292;48.944;9.240;2023-06-22T07:36:42;29.30;99.90
6518;DHT22;3292;48.944;9.240;2023-06-22T07:39:09;29.20;99.90
6518;DHT22;3292;48.944;9.240;2023-06-22T07:41:35;29.10;99.90
6518;DHT22;3292;48.944;9.240;2023-06-22T07:44:02;29.10;99.90
6518;DHT22;3292;48.944;9.240;2023-06-22T07:46:31;29.00;99.90
6518;DHT22;3292;48.944;9.240;2023-06-22T07:48:57;28.80;99.90
6518;DHT22;3292;48.944;9.240;2023-06-22T07:51:25;28.90;99.90
6518;DHT22;3292;48.944;9.240;2023-06-22T07:53:52;29.00;99.90
6518;DHT22;3292;48.944;9.240;2023-06-22T07:56:19;29.30;99.90
6518;DHT22;3292;48.944;9.240;2023-06-22T07:58:46;29.50;99.90
6518;DHT22;3292;48.944;9.240;2023-06-22T08:01:13;29.20;99.90
6518;DHT22;3292;48.944;9.240;2023-06-22T08:03:42;28.80;99.90
6518;DHT22;3292;48.944;9.240;2023-06-22T08:06:09;28.40;99.90
6518;DHT22;3292;48.944;9.240;2023-06-22T08:08:36;28.50;99.90
6518;DHT22;3292;48.944;9.240;2023-06-22T08:11:03;28.80;99.90
6518;DHT22;3292;48.944;9.240;2023-06-22T08:13:30;28.90;99.90
6518;DHT22;3292;48.944;9.240;2023-06-22T08:15:57;29.00;99.90
6518;DHT22;3292;48.944;9.240;2023-06-22T08:18:24;29.10;99.90
6518;DHT22;3292;48.944;9.240;2023-06-22T08:20:52;29.10;99.90
6518;DHT22;3292;48.944;9.240;2023-06-22T08:23:19;29.20;99.90
6518;DHT22;3292;48.944;9.240;2023-06-22T08:25:46;29.10;99.90
6518;DHT22;3292;48.944;9.240;2023-06-22T08:28:13;29.20;99.90
6518;DHT22;3292;48.944;9.240;2023-06-22T08:30:40;28.90;99.90
6518;DHT22;3292;48.944;9.240;2023-06-22T08:33:07;28.90;99.90
6518;DHT22;3292;48.944;9.240;2023-06-22T08:35:34;29.00;99.90
6518;DHT22;3292;48.944;9.240;2023-06-22T08:38:02;29.10;99.90
6518;DHT22;3292;48.944;9.240;2023-06-22T08:40:29;29.10;99.90
6518;DHT22;3292;48.944;9.240;2023-06-22T08:42:55;29.00;99.90
6518;DHT22;3292;48.944;9.240;2023-06-22T08:45:22;28.90;99.90
6518;DHT22;3292;48.944;9.240;2023-06-22T08:47:49;28.60;99.90
6518;DHT22;3292;48.944;9.240;2023-06-22T08:50:16;28.70;99.90
6518;DHT22;3292;48.944;9.240;2023-06-22T08:52:43;28.50;99.90
6518;DHT22;3292;48.944;9.240;2023-06-22T08:55:12;28.40;99.90
6518;DHT22;3292;48.944;9.240;2023-06-22T08:57:40;28.30;99.90
6518;DHT22;3292;48.944;9.240;2023-06-22T09:00:09;28.10;99.90
6518;DHT22;3292;48.944;9.240;2023-06-22T09:02:42;27.90;99.90
6518;DHT22;3292;48.944;9.240;2023-06-22T09:05:09;27.70;99.90
6518;DHT22;3292;48.944;9.240;2023-06-22T09:07:36;27.50;99.90
6518;DHT22;3292;48.944;9.240;2023-06-22T09:10:03;27.50;99.90
6518;DHT22;3292;48.944;9.240;2023-06-22T09:12:33;27.80;99.90
6518;DHT22;3292;48.944;9.240;2023-06-22T09:15:00;28.20;99.90
6518;DHT22;3292;48.944;9.240;2023-06-22T09:17:28;28.60;99.90
6518;DHT22;3292;48.944;9.240;2023-06-22T09:19:55;28.80;99.90
6518;DHT22;3292;48.944;9.240;2023-06-22T09:22:22;29.00;99.90
6518;DHT22;3292;48.944;9.240;2023-06-22T09:24:54;29.20;99.90
6518;DHT22;3292;48.944;9.240;2023-06-22T09:27:21;29.30;99.90
6518;DHT22;3292;48.944;9.240;2023-06-22T09:29:50;29.50;99.90
6518;DHT22;3292;48.944;9.240;2023-06-22T09:32:16;29.50;99.90
6518;DHT22;3292;48.944;9.240;2023-06-22T09:34:43;29.40;99.90
6518;DHT22;3292;48.944;9.240;2023-06-22T09:37:10;29.20;99.90
6518;DHT22;3292;48.944;9.240;2023-06-22T09:39:37;29.40;99.90
6518;DHT22;3292;48.944;9.240;2023-06-22T09:42:05;29.40;99.90
6518;DHT22;3292;48.944;9.240;2023-06-22T09:44:32;29.70;99.90
6518;DHT22;3292;48.944;9.240;2023-06-22T09:47:00;30.10;99.90
6518;DHT22;3292;48.944;9.240;2023-06-22T09:49:27;30.40;99.90
6518;DHT22;3292;48.944;9.240;2023-06-22T09:51:54;30.60;99.90
6518;DHT22;3292;48.944;9.240;2023-06-22T09:54:20;31.00;99.90
6518;DHT22;3292;48.944;9.240;2023-06-22T09:56:47;31.00;99.90
6518;DHT22;3292;48.944;9.240;2023-06-22T09:59:14;31.10;99.90
6518;DHT22;3292;48.944;9.240;2023-06-22T10:01:41;31.20;99.90
6518;DHT22;3292;48.944;9.240;2023-06-22T10:04:09;31.20;99.90
6518;DHT22;3292;48.944;9.240;2023-06-22T10:06:36;31.00;99.90
6518;DHT22;3292;48.944;9.240;2023-06-22T10:09:06;30.80;99.90
6518;DHT22;3292;48.944;9.240;2023-06-22T10:11:33;31.00;99.90
6518;DHT22;3292;48.944;9.240;2023-06-22T10:14:01;31.20;99.90
6518;DHT22;3292;48.944;9.240;2023-06-22T10:16:30;31.50;99.90
6518;DHT22;3292;48.944;9.240;2023-06-22T10:18:57;31.60;99.90
6518;DHT22;3292;48.944;9.240;2023-06-22T10:21:25;31.30;99.90
6518;DHT22;3292;48.944;9.240;2023-06-22T10:23:54;31.00;99.90
6518;DHT22;3292;48.944;9.240;2023-06-22T10:26:21;31.00;99.90
6518;DHT22;3292;48.944;9.240;2023-06-22T10:28:47;30.90;99.90
6518;DHT22;3292;48.944;9.240;2023-06-22T10:31:14;30.90;99.90
6518;DHT22;3292;48.944;9.240;2023-06-22T10:33:42;31.00;99.90
6518;DHT22;3292;48.944;9.240;2023-06-22T10:36:10;31.10;99.90
6518;DHT22;3292;48.944;9.240;2023-06-22T10:38:38;31.20;99.90
6518;DHT22;3292;48.944;9.240;2023-06-22T10:41:05;31.40;99.90
6518;DHT22;3292;48.944;9.240;2023-06-22T10:43:32;31.30;99.90
6518;DHT22;3292;48.944;9.240;2023-06-22T10:45:59;31.30;99.90
6518;DHT22;3292;48.944;9.240;2023-06-22T10:48:26;31.30;99.90
6518;DHT22;3292;48.944;9.240;2023-06-22T10:50:52;31.40;99.90
6518;DHT22;3292;48.944;9.240;2023-06-22T10:53:20;31.20;99.90
6518;DHT22;3292;48.944;9.240;2023-06-22T10:55:48;31.10;99.90
6518;DHT22;3292;48.944;9.240;2023-06-22T10:58:15;31.00;99.90
6518;DHT22;3292;48.944;9.240;2023-06-22T11:00:42;31.10;99.90
6518;DHT22;3292;48.944;9.240;2023-06-22T11:03:08;31.10;99.90
6518;DHT22;3292;48.944;9.240;2023-06-22T11:05:35;31.30;99.90
6518;DHT22;3292;48.944;9.240;2023-06-22T11:08:02;31.20;99.90
6518;DHT22;3292;48.944;9.240;2023-06-22T11:10:29;31.20;99.90
6518;DHT22;3292;48.944;9.240;2023-06-22T11:12:57;31.10;99.90
6518;DHT22;3292;48.944;9.240;2023-06-22T11:15:24;31.00;99.90
6518;DHT22;3292;48.944;9.240;2023-06-22T11:17:51;31.10;99.90
6518;DHT22;3292;48.944;9.240;2023-06-22T11:20:18;31.30;99.90
6518;DHT22;3292;48.944;9.240;2023-06-22T11:22:45;31.40;99.90
6518;DHT22;3292;48.944;9.240;2023-06-22T11:25:12;31.50;99.90
6518;DHT22;3292;48.944;9.240;2023-06-22T11:27:38;31.30;99.90
6518;DHT22;3292;48.944;9.240;2023-06-22T11:30:08;31.10;99.90
6518;DHT22;3292;48.944;9.240;2023-06-22T11:32:35;31.20;99.90
6518;DHT22;3292;48.944;9.240;2023-06-22T11:35:02;31.20;99.90
6518;DHT22;3292;48.944;9.240;2023-06-22T11:37:29;31.20;99.90
6518;DHT22;3292;48.944;9.240;2023-06-22T11:39:56;31.30;99.90
6518;DHT22;3292;48.944;9.240;2023-06-22T11:42:24;31.20;99.90
6518;DHT22;3292;48.944;9.240;2023-06-22T11:44:51;31.20;99.90
6518;DHT22;3292;48.944;9.240;2023-06-22T11:47:19;31.00;99.90
6518;DHT22;3292;48.944;9.240;2023-06-22T11:49:46;30.80;99.90
6518;DHT22;3292;48.944;9.240;2023-06-22T11:52:13;30.60;99.90
6518;DHT22;3292;48.944;9.240;2023-06-22T11:54:40;30.70;99.90
6518;DHT22;3292;48.944;9.240;2023-06-22T11:57:06;30.80;99.90
6518;DHT22;3292;48.944;9.240;2023-06-22T11:59:33;30.70;99.90
6518;DHT22;3292;48.944;9.240;2023-06-22T12:02:00;30.70;99.90
6518;DHT22;3292;48.944;9.240;2023-06-22T12:04:28;30.60;99.90
6518;DHT22;3292;48.944;9.240;2023-06-22T12:06:55;30.70;99.90
6518;DHT22;3292;48.944;9.240;2023-06-22T12:09:22;30.70;99.90
6518;DHT22;3292;48.944;9.240;2023-06-22T12:11:49;30.70;99.90
6518;DHT22;3292;48.944;9.240;2023-06-22T12:14:15;30.80;99.90
6518;DHT22;3292;48.944;9.240;2023-06-22T12:16:42;30.90;99.90
6518;DHT22;3292;48.944;9.240;2023-06-22T12:19:10;30.80;99.90
6518;DHT22;3292;48.944;9.240;2023-06-22T12:21:38;30.80;99.90
6518;DHT22;3292;48.944;9.240;2023-06-22T12:24:06;30.80;99.90
6518;DHT22;3292;48.944;9.240;2023-06-22T12:26:33;30.80;99.90
6518;DHT22;3292;48.944;9.240;2023-06-22T12:28:59;30.80;99.90
6518;DHT22;3292;48.944;9.240;2023-06-22T12:31:26;30.80;99.90
6518;DHT22;3292;48.944;9.240;2023-06-22T12:33:53;30.70;99.90
6518;DHT22;3292;48.944;9.240;2023-06-22T12:36:20;30.70;99.90
6518;DHT22;3292;48.944;9.240;2023-06-22T12:38:48;30.80;99.90
6518;DHT22;3292;48.944;9.240;2023-06-22T12:41:15;30.70;99.90
6518;DHT22;3292;48.944;9.240;2023-06-22T12:43:41;30.60;99.90
6518;DHT22;3292;48.944;9.240;2023-06-22T12:46:08;30.60;99.90
6518;DHT22;3292;48.944;9.240;2023-06-22T12:48:35;30.60;99.90
6518;DHT22;3292;48.944;9.240;2023-06-22T12:51:07;30.70;99.90
6518;DHT22;3292;48.944;9.240;2023-06-22T12:53:33;30.60;99.90
6518;DHT22;3292;48.944;9.240;2023-06-22T12:56:02;30.60;99.90
6518;DHT22;3292;48.944;9.240;2023-06-22T12:58:29;30.50;99.90
6518;DHT22;3292;48.944;9.240;2023-06-22T13:00:56;30.50;99.90
6518;DHT22;3292;48.944;9.240;2023-06-22T13:03:23;30.40;99.90
6518;DHT22;3292;48.944;9.240;2023-06-22T13:05:52;30.50;99.90
6518;DHT22;3292;48.944;9.240;2023-06-22T13:08:19;30.40;99.90
6518;DHT22;3292;48.944;9.240;2023-06-22T13:10:45;30.30;99.90
6518;DHT22;3292;48.944;9.240;2023-06-22T13:13:14;30.30;99.90
6518;DHT22;3292;48.944;9.240;2023-06-22T13:15:41;30.10;99.90
6518;DHT22;3292;48.944;9.240;2023-06-22T13:18:07;30.10;99.90
6518;DHT22;3292;48.944;9.240;2023-06-22T13:20:34;30.20;99.90
6518;DHT22;3292;48.944;9.240;2023-06-22T13:23:01;30.20;99.90
6518;DHT22;3292;48.944;9.240;2023-06-22T13:25:28;30.30;99.90
6518;DHT22;3292;48.944;9.240;2023-06-22T13:27:54;30.30;99.90
6518;DHT22;3292;48.944;9.240;2023-06-22T13:30:23;30.30;99.90
6518;DHT22;3292;48.944;9.240;2023-06-22T13:32:49;30.20;99.90
6518;DHT22;3292;48.944;9.240;2023-06-22T13:35:16;30.10;99.90
6518;DHT22;3292;48.944;9.240;2023-06-22T13:37:43;30.20;99.90
6518;DHT22;3292;48.944;9.240;2023-06-22T13:40:10;30.20;99.90
6518;DHT22;3292;48.944;9.240;2023-06-22T13:42:37;30.20;99.90
6518;DHT22;3292;48.944;9.240;2023-06-22T13:45:04;30.30;99.90
6518;DHT22;3292;48.944;9.240;2023-06-22T13:47:33;30.50;99.90
6518;DHT22;3292;48.944;9.240;2023-06-22T13:50:00;30.60;99.90
6518;DHT22;3292;48.944;9.240;2023-06-22T13:52:26;30.70;99.90
6518;DHT22;3292;48.944;9.240;2023-06-22T13:54:53;30.70;99.90
6518;DHT22;3292;48.944;9.240;2023-06-22T13:57:20;30.80;99.90
6518;DHT22;3292;48.944;9.240;2023-06-22T13:59:47;30.90;99.90
6518;DHT22;3292;48.944;9.240;2023-06-22T14:02:14;31.00;99.90
6518;DHT22;3292;48.944;9.240;2023-06-22T14:04:42;31.00;99.90
6518;DHT22;3292;48.944;9.240;2023-06-22T14:07:09;30.90;99.90
6518;DHT22;3292;48.944;9.240;2023-06-22T14:09:36;31.00;99.90
6518;DHT22;3292;48.944;9.240;2023-06-22T14:12:03;30.90;99.90
6518;DHT22;3292;48.944;9.240;2023-06-22T14:14:31;30.80;99.90
6518;DHT22;3292;48.944;9.240;2023-06-22T14:16:58;30.70;99.90
6518;DHT22;3292;48.944;9.240;2023-06-22T14:19:25;30.60;99.90
6518;DHT22;3292;48.944;9.240;2023-06-22T14:21:53;30.60;99.90
6518;DHT22;3292;48.944;9.240;2023-06-22T14:24:20;30.60;99.90
6518;DHT22;3292;48.944;9.240;2023-06-22T14:26:46;30.60;99.90
6518;DHT22;3292;48.944;9.240;2023-06-22T14:29:13;30.60;99.90
6518;DHT22;3292;48.944;9.240;2023-06-22T14:31:40;30.60;99.90
6518;DHT22;3292;48.944;9.240;2023-06-22T14:34:07;30.50;99.90
6518;DHT22;3292;48.944;9.240;2023-06-22T14:36:34;30.60;99.90
6518;DHT22;3292;48.944;9.240;2023-06-22T14:39:02;30.60;99.90
6518;DHT22;3292;48.944;9.240;2023-06-22T14:41:30;30.80;99.90
6518;DHT22;3292;48.944;9.240;2023-06-22T14:43:57;30.90;99.90
6518;DHT22;3292;48.944;9.240;2023-06-22T14:46:23;31.00;99.90
6518;DHT22;3292;48.944;9.240;2023-06-22T14:48:50;31.10;99.90
6518;DHT22;3292;48.944;9.240;2023-06-22T14:51:17;31.20;99.90
6518;DHT22;3292;48.944;9.240;2023-06-22T14:53:45;31.20;99.90
6518;DHT22;3292;48.944;9.240;2023-06-22T14:56:16;31.50;99.90
6518;DHT22;3292;48.944;9.240;2023-06-22T14:58:44;31.60;99.90
6518;DHT22;3292;48.944;9.240;2023-06-22T15:01:11;31.90;99.90
6518;DHT22;3292;48.944;9.240;2023-06-22T15:03:38;31.90;99.90
6518;DHT22;3292;48.944;9.240;2023-06-22T15:06:05;32.20;99.90
6518;DHT22;3292;48.944;9.240;2023-06-22T15:08:32;32.30;99.40
6518;DHT22;3292;48.944;9.240;2023-06-22T15:10:59;32.40;99.00
6518;DHT22;3292;48.944;9.240;2023-06-22T15:13:29;32.60;95.50
6518;DHT22;3292;48.944;9.240;2023-06-22T15:15:58;32.70;86.30
6518;DHT22;3292;48.944;9.240;2023-06-22T15:18:24;32.80;81.00
6518;DHT22;3292;48.944;9.240;2023-06-22T15:20:51;32.90;79.70
6518;DHT22;3292;48.944;9.240;2023-06-22T15:23:18;32.90;77.80
6518;DHT22;3292;48.944;9.240;2023-06-22T15:25:46;33.10;75.90
6518;DHT22;3292;48.944;9.240;2023-06-22T15:28:13;33.10;76.60
6518;DHT22;3292;48.944;9.240;2023-06-22T15:30:41;33.20;74.60
6518;DHT22;3292;48.944;9.240;2023-06-22T15:33:09;33.30;72.60
6518;DHT22;3292;48.944;9.240;2023-06-22T15:35:36;33.20;74.00
6518;DHT22;3292;48.944;9.240;2023-06-22T15:38:03;33.20;72.30
6518;DHT22;3292;48.944;9.240;2023-06-22T15:40:30;33.10;72.50
6518;DHT22;3292;48.944;9.240;2023-06-22T15:42:56;33.10;70.60
6518;DHT22;3292;48.944;9.240;2023-06-22T15:45:24;33.10;70.80
6518;DHT22;3292;48.944;9.240;2023-06-22T15:47:52;33.10;70.70
6518;DHT22;3292;48.944;9.240;2023-06-22T15:50:19;33.10;71.70
6518;DHT22;3292;48.944;9.240;2023-06-22T15:52:46;33.20;70.80
6518;DHT22;3292;48.944;9.240;2023-06-22T15:55:15;33.10;70.40
6518;DHT22;3292;48.944;9.240;2023-06-22T15:57:42;32.90;69.80
6518;DHT22;3292;48.944;9.240;2023-06-22T16:00:12;32.80;69.00
6518;DHT22;3292;48.944;9.240;2023-06-22T16:02:40;32.70;70.20
6518;DHT22;3292;48.944;9.240;2023-06-22T16:05:08;32.60;71.00